createdAt,value
2022-12-07T00:01:20.583Z,100737.78
2022-12-07T00:03:49.723Z,100733.28
2022-12-07T00:06:18.770Z,100733.94
2022-12-07T00:08:49.014Z,100720.53
2022-12-07T00:11:18.190Z,100725.44
2022-12-07T00:13:46.811Z,100719.38
2022-12-07T00:16:16.462Z,100717.41
2022-12-07T00:18:45.115Z,100709.19
2022-12-07T00:21:15.686Z,100700.00
2022-12-07T00:23:45.333Z,100699.63
2022-12-07T00:26:16.302Z,100696.28
2022-12-07T00:28:47.162Z,100699.16
2022-12-07T00:31:16.970Z,100693.31
2022-12-07T00:33:45.398Z,100697.53
2022-12-07T00:36:16.127Z,100689.16
2022-12-07T00:38:44.073Z,100692.38
2022-12-07T00:41:15.213Z,100687.84
2022-12-07T00:43:44.643Z,100690.22
2022-12-07T00:46:12.888Z,100687.03
2022-12-07T00:48:40.973Z,100684.34
2022-12-07T00:51:09.616Z,100688.88
2022-12-07T00:53:41.358Z,100677.34
2022-12-07T00:56:11.126Z,100680.84
2022-12-07T00:58:40.183Z,100672.59
2022-12-07T01:01:09.660Z,100672.94
2022-12-07T01:03:38.259Z,100668.72
2022-12-07T01:06:06.247Z,100671.41
2022-12-07T01:08:34.130Z,100672.41
2022-12-07T01:11:03.129Z,100671.53
2022-12-07T01:13:31.233Z,100675.75
2022-12-07T01:16:02.202Z,100672.41
2022-12-07T01:18:31.144Z,100676.59
2022-12-07T01:21:00.617Z,100683.31
2022-12-07T01:23:28.814Z,100671.91
2022-12-07T01:25:57.847Z,100670.91
2022-12-07T01:28:25.949Z,100677.44
2022-12-07T01:31:00.973Z,100665.72
2022-12-07T01:33:30.441Z,100673.59
2022-12-07T01:36:02.865Z,100669.75
2022-12-07T01:38:31.652Z,100665.22
2022-12-07T01:41:00.222Z,100657.16
2022-12-07T01:43:30.734Z,100658.19
2022-12-07T01:45:59.973Z,100645.09
2022-12-07T01:48:31.512Z,100649.28
2022-12-07T01:51:04.717Z,100643.94
2022-12-07T01:53:36.012Z,100641.94
2022-12-07T01:56:03.785Z,100637.94
2022-12-07T01:58:31.826Z,100643.31
2022-12-07T02:01:01.207Z,100642.59
2022-12-07T02:03:34.315Z,100652.13
2022-12-07T02:06:02.512Z,100654.63
2022-12-07T02:08:30.695Z,100649.25
2022-12-07T02:10:58.353Z,100643.91
2022-12-07T02:13:28.144Z,100648.72
2022-12-07T02:16:14.237Z,100647.41
2022-12-07T02:18:51.673Z,100638.88
2022-12-07T02:21:31.516Z,100637.81
2022-12-07T02:24:33.396Z,100634.91
2022-12-07T02:27:14.956Z,100640.47
2022-12-07T02:29:49.095Z,100631.63
2022-12-07T02:32:25.853Z,100628.75
2022-12-07T02:34:59.373Z,100625.75
2022-12-07T02:37:37.525Z,100632.56
2022-12-07T02:40:11.834Z,100632.06
2022-12-07T02:42:44.773Z,100625.41
2022-12-07T02:45:16.076Z,100614.34
2022-12-07T02:47:45.778Z,100625.88
2022-12-07T02:50:13.829Z,100628.25
2022-12-07T02:52:42.490Z,100627.78
2022-12-07T02:55:10.567Z,100622.88
2022-12-07T02:57:52.187Z,100617.69
2022-12-07T03:00:22.407Z,100613.63
2022-12-07T03:02:57.396Z,100619.19
2022-12-07T03:05:45.519Z,100621.88
2022-12-07T03:08:17.547Z,100622.72
2022-12-07T03:10:56.137Z,100623.91
2022-12-07T03:13:30.321Z,100624.03
2022-12-07T03:16:04.545Z,100612.81
2022-12-07T03:18:37.668Z,100618.00
2022-12-07T03:21:13.299Z,100613.31
2022-12-07T03:23:44.235Z,100603.44
2022-12-07T03:26:16.669Z,100602.94
2022-12-07T03:28:50.592Z,100605.34
2022-12-07T03:31:23.769Z,100604.81
2022-12-07T03:33:56.066Z,100599.72
2022-12-07T03:36:28.552Z,100600.41
2022-12-07T03:39:02.608Z,100600.94
2022-12-07T03:41:33.112Z,100603.75
2022-12-07T03:44:03.593Z,100605.56
2022-12-07T03:46:39.656Z,100606.56
2022-12-07T03:49:13.508Z,100603.25
2022-12-07T03:51:47.602Z,100601.22
2022-12-07T03:54:21.067Z,100604.97
2022-12-07T03:56:50.510Z,100604.59
2022-12-07T03:59:20.032Z,100619.19
2022-12-07T04:01:55.152Z,100617.72
2022-12-07T04:04:23.316Z,100614.38
2022-12-07T04:06:50.989Z,100619.91
2022-12-07T04:09:18.636Z,100618.84
2022-12-07T04:11:46.332Z,100622.38
2022-12-07T04:14:20.174Z,100617.69
2022-12-07T04:16:50.156Z,100620.34
2022-12-07T04:19:19.425Z,100616.84
2022-12-07T04:21:47.235Z,100623.84
2022-12-07T04:24:16.262Z,100622.69
2022-12-07T04:26:45.472Z,100620.69
2022-12-07T04:29:13.406Z,100614.97
2022-12-07T04:31:41.632Z,100618.28
2022-12-07T04:34:11.160Z,100611.75
2022-12-07T04:36:40.136Z,100609.75
2022-12-07T04:39:08.885Z,100616.00
2022-12-07T04:41:36.535Z,100614.47
2022-12-07T04:44:08.226Z,100608.47
2022-12-07T04:46:36.236Z,100606.16
2022-12-07T04:49:04.087Z,100605.44
2022-12-07T04:51:33.057Z,100602.59
2022-12-07T04:54:00.653Z,100601.13
2022-12-07T04:56:28.488Z,100595.41
2022-12-07T04:58:56.655Z,100593.47
2022-12-07T05:01:25.304Z,100595.84
2022-12-07T05:03:53.314Z,100592.53
2022-12-07T05:06:21.412Z,100592.19
2022-12-07T05:08:50.465Z,100595.56
2022-12-07T05:11:32.142Z,100602.75
2022-12-07T05:13:59.844Z,100600.25
2022-12-07T05:16:27.629Z,100598.38
2022-12-07T05:18:55.358Z,100599.28
2022-12-07T05:21:23.397Z,100594.63
2022-12-07T05:23:52.853Z,100596.28
2022-12-07T05:26:20.649Z,100603.66
2022-12-07T05:28:52.459Z,100600.94
2022-12-07T05:31:20.775Z,100606.63
2022-12-07T05:33:48.899Z,100602.66
2022-12-07T05:36:16.646Z,100601.97
2022-12-07T05:38:44.294Z,100596.94
2022-12-07T05:41:29.832Z,100602.94
2022-12-07T05:43:57.562Z,100597.75
2022-12-07T05:46:25.219Z,100603.63
2022-12-07T05:48:52.913Z,100600.41
2022-12-07T05:51:20.577Z,100610.38
2022-12-07T05:53:48.212Z,100608.53
2022-12-07T05:56:17.561Z,100602.19
2022-12-07T05:59:02.888Z,100599.31
2022-12-07T06:01:30.569Z,100591.91
2022-12-07T06:03:58.227Z,100598.78
2022-12-07T06:06:26.006Z,100602.84
2022-12-07T06:08:53.765Z,100603.84
2022-12-07T06:11:40.431Z,100605.31
2022-12-07T06:14:10.381Z,100606.47
2022-12-07T06:16:38.100Z,100602.09
2022-12-07T06:19:05.861Z,100597.78
2022-12-07T06:21:33.753Z,100600.47
2022-12-07T06:24:01.637Z,100596.31
2022-12-07T06:26:30.667Z,100606.50
2022-12-07T06:28:58.515Z,100601.97
2022-12-07T06:31:26.407Z,100596.09
2022-12-07T06:33:59.513Z,100607.84
2022-12-07T06:36:27.518Z,100600.00
2022-12-07T06:38:55.477Z,100597.03
2022-12-07T06:41:24.002Z,100595.78
2022-12-07T06:43:56.198Z,100598.34
2022-12-07T06:46:24.963Z,100611.28
2022-12-07T06:48:52.889Z,100597.38
2022-12-07T06:51:20.918Z,100599.06
2022-12-07T06:53:48.678Z,100599.06
2022-12-07T06:56:16.786Z,100600.44
2022-12-07T06:58:44.893Z,100597.66
2022-12-07T07:01:15.813Z,100609.19
2022-12-07T07:03:43.649Z,100606.84
2022-12-07T07:06:11.922Z,100610.00
2022-12-07T07:08:51.975Z,100605.72
2022-12-07T07:11:20.056Z,100613.75
2022-12-07T07:13:47.778Z,100616.44
2022-12-07T07:16:16.833Z,100616.06
2022-12-07T07:18:48.176Z,100609.63
2022-12-07T07:21:15.822Z,100620.06
2022-12-07T07:23:43.512Z,100619.78
2022-12-07T07:26:11.211Z,100622.31
2022-12-07T07:28:39.231Z,100627.66
2022-12-07T07:31:06.989Z,100629.88
2022-12-07T07:33:36.100Z,100627.53
2022-12-07T07:36:03.726Z,100623.25
2022-12-07T07:38:31.361Z,100625.47
2022-12-07T07:40:59.018Z,100638.25
2022-12-07T07:43:26.841Z,100634.91
2022-12-07T07:45:54.588Z,100636.59
2022-12-07T07:48:23.610Z,100637.81
2022-12-07T07:50:52.754Z,100635.00
2022-12-07T07:53:20.415Z,100635.41
2022-12-07T07:55:53.339Z,100639.28
2022-12-07T07:58:21.092Z,100632.63
2022-12-07T08:00:48.734Z,100634.78
2022-12-07T08:03:16.466Z,100635.63
2022-12-07T08:05:44.198Z,100637.31
2022-12-07T08:08:13.319Z,100640.38
2022-12-07T08:10:41.333Z,100636.56
2022-12-07T08:13:15.417Z,100644.97
2022-12-07T08:15:45.791Z,100645.19
2022-12-07T08:18:14.494Z,100648.03
2022-12-07T08:20:43.335Z,100637.47
2022-12-07T08:23:13.218Z,100642.50
2022-12-07T08:25:41.237Z,100638.03
2022-12-07T08:28:09.178Z,100639.72
2022-12-07T08:30:36.876Z,100635.66
2022-12-07T08:33:04.648Z,100639.03
2022-12-07T08:35:34.737Z,100637.41
2022-12-07T08:38:03.227Z,100636.88
2022-12-07T08:40:32.556Z,100645.63
2022-12-07T08:43:00.200Z,100638.34
2022-12-07T08:45:28.675Z,100645.19
2022-12-07T08:48:02.812Z,100647.69
2022-12-07T08:50:31.041Z,100647.09
2022-12-07T08:53:01.538Z,100649.28
2022-12-07T08:55:30.486Z,100650.44
2022-12-07T08:58:01.130Z,100656.53
2022-12-07T09:00:29.141Z,100655.91
2022-12-07T09:02:56.851Z,100655.56
2022-12-07T09:05:24.719Z,100656.41
2022-12-07T09:07:57.487Z,100653.72
2022-12-07T09:10:25.313Z,100654.47
2022-12-07T09:12:52.984Z,100663.09
2022-12-07T09:15:22.126Z,100659.63
2022-12-07T09:17:49.853Z,100659.41
2022-12-07T09:20:17.576Z,100657.34
2022-12-07T09:22:45.178Z,100655.34
2022-12-07T09:25:13.060Z,100645.63
2022-12-07T09:27:41.124Z,100651.59
2022-12-07T09:30:09.782Z,100645.38
2022-12-07T09:32:38.825Z,100645.47
2022-12-07T09:35:07.378Z,100645.69
2022-12-07T09:37:36.984Z,100639.69
2022-12-07T09:40:06.770Z,100640.19
2022-12-07T09:42:37.829Z,100645.56
2022-12-07T09:45:08.784Z,100638.53
2022-12-07T09:47:36.501Z,100640.31
2022-12-07T09:50:14.042Z,100635.38
2022-12-07T09:52:42.256Z,100643.28
2022-12-07T09:55:14.387Z,100635.41
2022-12-07T09:57:43.677Z,100634.81
2022-12-07T10:00:16.760Z,100635.19
2022-12-07T10:02:46.866Z,100637.38
2022-12-07T10:05:23.930Z,100633.16
2022-12-07T10:07:52.556Z,100635.53
2022-12-07T10:10:25.111Z,100638.81
2022-12-07T10:12:58.902Z,100627.13
2022-12-07T10:15:44.038Z,100627.31
2022-12-07T10:18:29.976Z,100631.66
2022-12-07T10:21:14.475Z,100625.28
2022-12-07T10:23:43.710Z,100629.31
2022-12-07T10:26:28.645Z,100626.25
2022-12-07T10:28:57.455Z,100631.06
2022-12-07T10:31:25.419Z,100629.38
2022-12-07T10:33:55.404Z,100626.69
2022-12-07T10:36:27.642Z,100628.41
2022-12-07T10:39:01.856Z,100631.94
2022-12-07T10:41:29.920Z,100627.94
2022-12-07T10:43:58.989Z,100626.22
2022-12-07T10:46:48.324Z,100613.53
2022-12-07T10:49:49.682Z,100612.84
2022-12-07T10:52:32.983Z,100615.97
2022-12-07T10:55:17.934Z,100610.28
2022-12-07T10:58:00.575Z,100616.66
2022-12-07T11:00:37.195Z,100615.13
2022-12-07T11:03:32.152Z,100608.78
2022-12-07T11:06:13.711Z,100601.72
2022-12-07T11:08:57.095Z,100605.41
2022-12-07T11:11:34.023Z,100613.00
2022-12-07T11:14:13.582Z,100618.47
2022-12-07T11:16:55.132Z,100615.28
2022-12-07T11:19:36.300Z,100615.28
2022-12-07T11:22:11.149Z,100609.56
2022-12-07T11:24:47.641Z,100607.00
2022-12-07T11:27:25.852Z,100599.97
2022-12-07T11:30:04.744Z,100597.22
2022-12-07T11:32:46.265Z,100588.56
2022-12-07T11:35:24.616Z,100593.53
2022-12-07T11:37:58.117Z,100599.97
2022-12-07T11:40:35.215Z,100597.56
2022-12-07T11:43:06.751Z,100601.41
2022-12-07T11:45:35.938Z,100586.50
2022-12-07T11:48:10.329Z,100590.53
2022-12-07T11:50:42.684Z,100586.38
2022-12-07T11:53:18.739Z,100593.13
2022-12-07T11:55:53.113Z,100584.28
2022-12-07T11:58:44.456Z,100588.00
2022-12-07T12:01:31.187Z,100576.63
2022-12-07T12:04:07.062Z,100577.28
2022-12-07T12:06:36.065Z,100571.06
2022-12-07T12:15:25.635Z,100549.69
2022-12-07T12:18:11.394Z,100559.59
2022-12-07T12:20:45.860Z,100561.78
2022-12-07T12:23:17.526Z,100548.53
2022-12-07T12:25:49.137Z,100554.53
2022-12-07T12:28:31.784Z,100552.38
2022-12-07T12:31:14.659Z,100548.00
2022-12-07T12:33:49.673Z,100545.31
2022-12-07T12:36:27.325Z,100543.84
2022-12-07T12:39:14.702Z,100543.31
2022-12-07T12:42:08.993Z,100539.16
2022-12-07T12:45:06.160Z,100539.31
2022-12-07T12:48:28.886Z,100532.41
2022-12-07T12:51:39.169Z,100530.03
2022-12-07T12:54:12.966Z,100541.47
2022-12-07T12:56:45.525Z,100538.94
2022-12-07T12:59:24.620Z,100535.06
2022-12-07T13:01:55.445Z,100522.97
2022-12-07T13:04:37.520Z,100531.00
2022-12-07T13:07:05.234Z,100533.72
2022-12-07T13:09:36.249Z,100526.00
2022-12-07T13:12:07.378Z,100522.34
2022-12-07T13:14:56.791Z,100522.34
2022-12-07T13:18:02.324Z,100519.34
2022-12-07T13:20:52.240Z,100528.06
2022-12-07T13:23:32.352Z,100516.31
2022-12-07T13:26:19.639Z,100514.94
2022-12-07T13:28:49.407Z,100522.00
2022-12-07T13:31:34.516Z,100514.75
2022-12-07T13:34:03.783Z,100511.25
2022-12-07T13:36:36.768Z,100509.59
2022-12-07T13:39:18.809Z,100507.59
2022-12-07T13:41:51.595Z,100504.41
2022-12-07T13:44:20.481Z,100510.78
2022-12-07T13:46:56.011Z,100505.91
2022-12-07T13:49:26.417Z,100509.28
2022-12-07T13:51:57.060Z,100498.53
2022-12-07T13:54:24.829Z,100507.41
2022-12-07T13:56:55.297Z,100499.53
2022-12-07T13:59:26.089Z,100501.88
2022-12-07T14:01:55.489Z,100492.81
2022-12-07T14:04:41.424Z,100491.81
2022-12-07T14:07:26.303Z,100487.13
2022-12-07T14:09:59.869Z,100496.03
2022-12-07T14:12:29.926Z,100491.81
2022-12-07T14:14:58.816Z,100486.78
2022-12-07T14:17:28.201Z,100492.13
2022-12-07T14:19:58.062Z,100493.50
2022-12-07T14:22:37.900Z,100492.81
2022-12-07T14:25:21.524Z,100499.38
2022-12-07T14:27:54.022Z,100496.16
2022-12-07T14:30:22.542Z,100486.94
2022-12-07T14:32:54.350Z,100492.47
2022-12-07T14:35:22.657Z,100494.16
2022-12-07T14:37:52.086Z,100498.84
2022-12-07T14:40:22.062Z,100497.69
2022-12-07T14:42:53.335Z,100492.66
2022-12-07T14:45:23.404Z,100498.19
2022-12-07T14:53:36.671Z,100493.47
2022-12-07T14:56:06.553Z,100495.34
2022-12-07T14:58:34.529Z,100499.00
2022-12-07T15:01:03.389Z,100498.19
2022-12-07T15:03:31.791Z,100498.47
2022-12-07T15:06:00.353Z,100502.84
2022-12-07T15:08:28.726Z,100503.69
2022-12-07T15:10:58.872Z,100506.03
2022-12-07T15:13:44.382Z,100504.66
2022-12-07T15:16:14.918Z,100501.50
2022-12-07T15:18:58.413Z,100496.63
2022-12-07T15:21:30.925Z,100499.81
2022-12-07T15:23:59.283Z,100497.97
2022-12-07T15:26:28.719Z,100503.66
2022-12-07T15:28:56.616Z,100504.81
2022-12-07T15:31:53.917Z,100499.63
2022-12-07T15:34:12.487Z,100497.94
2022-12-07T15:36:40.776Z,100494.59
2022-12-07T15:39:15.918Z,100504.00
2022-12-07T15:41:45.030Z,100507.84
2022-12-07T15:44:32.260Z,100509.66
2022-12-07T15:47:00.634Z,100493.38
2022-12-07T15:49:29.220Z,100501.78
2022-12-07T15:51:57.195Z,100497.06
2022-12-07T15:54:26.991Z,100498.56
2022-12-07T15:56:57.153Z,100499.72
2022-12-07T15:59:25.412Z,100497.19
2022-12-07T16:01:53.382Z,100495.72
2022-12-07T16:04:21.344Z,100493.03
2022-12-07T16:06:49.061Z,100489.72
2022-12-07T16:09:16.704Z,100494.94
2022-12-07T16:11:44.559Z,100491.78
2022-12-07T16:14:13.760Z,100488.94
2022-12-07T16:16:42.638Z,100494.50
2022-12-07T16:19:12.010Z,100497.72
2022-12-07T16:21:40.343Z,100500.06
2022-12-07T16:24:09.177Z,100497.19
2022-12-07T16:26:37.098Z,100499.88
2022-12-07T16:29:04.849Z,100500.53
2022-12-07T16:31:34.821Z,100498.53
2022-12-07T16:34:02.613Z,100501.03
2022-12-07T16:39:19.159Z,100493.13
2022-12-07T16:41:46.937Z,100488.63
2022-12-07T16:44:15.910Z,100483.75
2022-12-07T16:46:45.105Z,100476.56
2022-12-07T16:49:14.585Z,100486.94
2022-12-07T16:51:43.754Z,100480.06
2022-12-07T16:54:12.688Z,100472.38
2022-12-07T16:56:41.166Z,100473.06
2022-12-07T16:59:08.961Z,100475.88
2022-12-07T17:01:37.145Z,100466.00
2022-12-07T17:04:06.462Z,100465.66
2022-12-07T17:06:34.261Z,100470.38
2022-12-07T17:09:01.924Z,100465.00
2022-12-07T17:11:32.619Z,100466.00
2022-12-07T17:14:17.937Z,100452.25
2022-12-07T17:16:46.097Z,100457.75
2022-12-07T17:19:17.322Z,100463.97
2022-12-07T17:21:46.083Z,100461.75
2022-12-07T17:24:16.227Z,100458.44
2022-12-07T17:26:45.991Z,100461.25
2022-12-07T17:29:15.806Z,100462.56
2022-12-07T17:31:49.517Z,100465.59
2022-12-07T17:34:21.180Z,100465.94
2022-12-07T17:36:48.913Z,100480.94
2022-12-07T17:39:19.063Z,100484.94
2022-12-07T17:42:04.810Z,100485.03
2022-12-07T17:44:33.527Z,100477.81
2022-12-07T17:47:02.827Z,100485.97
2022-12-07T17:49:32.243Z,100476.44
2022-12-07T17:52:17.770Z,100475.50
2022-12-07T17:54:45.536Z,100467.47
2022-12-07T17:57:13.194Z,100474.53
2022-12-07T17:59:40.878Z,100464.16
2022-12-07T18:02:11.747Z,100460.84
2022-12-07T18:04:41.903Z,100462.53
2022-12-07T18:07:09.850Z,100460.50
2022-12-07T18:09:37.619Z,100458.53
2022-12-07T18:12:05.707Z,100449.25
2022-12-07T18:14:33.355Z,100448.34
2022-12-07T18:17:01.117Z,100445.66
2022-12-07T18:19:28.925Z,100446.88
2022-12-07T18:21:58.096Z,100439.66
2022-12-07T18:24:25.815Z,100436.50
2022-12-07T18:26:53.567Z,100437.84
2022-12-07T18:29:21.455Z,100434.81
2022-12-07T18:31:49.598Z,100437.97
2022-12-07T18:34:19.997Z,100437.97
2022-12-07T18:36:49.570Z,100429.59
2022-12-07T18:39:20.123Z,100433.94
2022-12-07T18:41:48.624Z,100428.75
2022-12-07T18:44:16.866Z,100428.59
2022-12-07T18:46:45.130Z,100427.25
2022-12-07T18:49:14.919Z,100420.66
2022-12-07T18:51:45.014Z,100422.19
2022-12-07T18:54:12.714Z,100417.50
2022-12-07T18:56:41.779Z,100416.81
2022-12-07T18:59:32.469Z,100413.16
2022-12-07T19:02:00.581Z,100419.19
2022-12-07T19:04:28.394Z,100412.50
2022-12-07T19:06:56.036Z,100419.03
2022-12-07T19:09:23.858Z,100412.31
2022-12-07T19:11:52.977Z,100415.66
2022-12-07T19:14:24.264Z,100410.28
2022-12-07T19:16:54.247Z,100410.63
2022-12-07T19:19:25.892Z,100408.31
2022-12-07T19:21:53.581Z,100408.28
2022-12-07T19:24:23.621Z,100397.88
2022-12-07T19:26:53.618Z,100402.94
2022-12-07T19:29:22.239Z,100398.91
2022-12-07T19:31:50.251Z,100397.22
2022-12-07T19:34:18.743Z,100392.88
2022-12-07T19:36:48.007Z,100391.53
2022-12-07T19:39:16.257Z,100390.88
2022-12-07T19:41:44.837Z,100392.69
2022-12-07T19:44:15.574Z,100392.56
2022-12-07T19:46:45.643Z,100386.00
2022-12-07T19:49:15.950Z,100389.03
2022-12-07T19:51:44.640Z,100389.38
2022-12-07T19:54:14.667Z,100393.91
2022-12-07T19:56:43.702Z,100382.84
2022-12-07T19:59:11.777Z,100390.84
2022-12-07T20:01:42.067Z,100380.13
2022-12-07T20:04:13.586Z,100373.94
2022-12-07T20:06:42.899Z,100372.41
2022-12-07T20:09:11.074Z,100373.41
2022-12-07T20:11:56.532Z,100383.31
2022-12-07T20:14:25.027Z,100369.91
2022-12-07T20:16:54.395Z,100367.22
2022-12-07T20:19:22.247Z,100357.03
2022-12-07T20:21:50.811Z,100360.69
2022-12-07T20:24:20.403Z,100345.44
2022-12-07T20:26:49.911Z,100343.94
2022-12-07T20:29:20.109Z,100343.94
2022-12-07T20:31:49.394Z,100342.94
2022-12-07T20:34:18.894Z,100335.72
2022-12-07T20:36:46.750Z,100338.91
2022-12-07T20:39:15.186Z,100337.06
2022-12-07T20:42:00.579Z,100330.34
2022-12-07T20:44:28.971Z,100320.97
2022-12-07T20:46:56.842Z,100320.31
2022-12-07T20:49:25.899Z,100324.84
2022-12-07T20:51:53.848Z,100327.72
2022-12-07T20:54:21.820Z,100317.47
2022-12-07T20:56:49.633Z,100324.00
2022-12-07T20:59:17.827Z,100317.63
2022-12-07T21:01:46.386Z,100320.63
2022-12-07T21:04:15.642Z,100319.16
2022-12-07T21:06:44.861Z,100318.13
2022-12-07T21:09:12.857Z,100323.34
2022-12-07T21:11:41.365Z,100321.00
2022-12-07T21:14:09.741Z,100321.50
2022-12-07T21:16:37.678Z,100314.13
2022-12-07T21:19:05.946Z,100310.94
2022-12-07T21:21:34.877Z,100310.59
2022-12-07T21:24:06.200Z,100312.44
2022-12-07T21:26:35.920Z,100312.63
2022-12-07T21:29:05.131Z,100317.28
2022-12-07T21:31:33.524Z,100310.75
2022-12-07T21:34:03.239Z,100307.91
2022-12-07T21:36:31.394Z,100307.44
2022-12-07T21:38:59.801Z,100300.38
2022-12-07T21:41:31.180Z,100300.06
2022-12-07T21:43:59.609Z,100288.31
2022-12-07T21:46:33.690Z,100296.19
2022-12-07T21:49:04.292Z,100292.03
2022-12-07T21:51:32.522Z,100292.84
2022-12-07T21:54:01.879Z,100288.31
2022-12-07T21:56:33.512Z,100292.53
2022-12-07T21:59:03.486Z,100283.28
2022-12-07T22:01:35.652Z,100287.00
2022-12-07T22:04:05.210Z,100281.94
2022-12-07T22:06:34.857Z,100285.81
2022-12-07T22:09:02.654Z,100287.97
2022-12-07T22:11:31.828Z,100289.66
2022-12-07T22:14:17.435Z,100293.19
2022-12-07T22:16:45.202Z,100290.34
2022-12-07T22:19:13.917Z,100284.94
2022-12-07T22:21:41.728Z,100285.09
2022-12-07T22:24:11.198Z,100276.53
2022-12-07T22:26:40.669Z,100273.00
2022-12-07T22:29:09.086Z,100277.22
2022-12-07T22:31:38.270Z,100265.50
2022-12-07T22:34:06.409Z,100259.78
2022-12-07T22:36:35.390Z,100263.19
2022-12-07T22:39:03.750Z,100258.47
2022-12-07T22:41:33.348Z,100252.78
2022-12-07T22:44:07.183Z,100248.41
2022-12-07T22:46:35.782Z,100253.13
2022-12-07T22:49:03.981Z,100248.78
2022-12-07T22:51:33.947Z,100240.25
2022-12-07T22:54:03.370Z,100241.94
2022-12-07T22:56:33.722Z,100239.38
2022-12-07T22:59:03.298Z,100235.22
2022-12-07T23:01:31.216Z,100234.22
2022-12-07T23:03:59.333Z,100222.13
2022-12-07T23:06:29.670Z,100224.50
2022-12-07T23:08:58.803Z,100221.31
2022-12-07T23:11:47.290Z,100218.47
2022-12-07T23:14:18.360Z,100221.31
2022-12-07T23:16:46.905Z,100222.34
2022-12-07T23:19:15.013Z,100219.31
2022-12-07T23:21:42.933Z,100217.13
2022-12-07T23:24:13.263Z,100208.94
2022-12-07T23:26:41.161Z,100210.91
2022-12-07T23:29:13.089Z,100213.31
2022-12-07T23:31:45.071Z,100204.59
2022-12-07T23:34:12.854Z,100205.56
2022-12-07T23:36:40.568Z,100200.88
2022-12-07T23:39:08.474Z,100202.06
2022-12-07T23:41:36.107Z,100191.19
2022-12-07T23:44:03.989Z,100196.69
2022-12-07T23:46:33.804Z,100188.84
2022-12-07T23:49:05.719Z,100182.78
2022-12-07T23:51:33.956Z,100181.63
2022-12-07T23:54:02.272Z,100179.28
2022-12-07T23:56:32.860Z,100177.44
2022-12-07T23:59:03.879Z,100178.75
